Bewolking Meer informatie Parkstad Weather Satellite


Neerslag Meer informatie Parkstad Rain Snow Radar


Onweersbuien Meer informatie Parkstad Lighntning


24/7 Weercamera Meer informatie Parkstad Weathercam


Natuurbrandrisico
CBI






sneeuw, ijzel, bevriezing. Van: 27-02-2020 15:00 tot: 21:00 Waarschuwing voor Parkstad (045): sneeuw, ijzel, bevriezing.  Niveau: Geel. info button

METAR rapporten vliegvelden

   
EHBK - Beek Nederland
Gewijzigd: 27-02-2020 17:55
Mogelijk wat sneeuw, Bewolking  
Mogelijk wat sneeuw, Bewolking  
   Wind: NNW 14.8 km/h
Wind: NNW 14.8 km/h
Temperatuur: 0°C
Voelt als: -4°C
Dauwpunt: 0°C
Vochtigheid: 100%
Barometer: 998 hPa
Satelliet beelden: Bewolking
Zicht: 1 km
Bewolking: Bewolking 31 m
EHBK 271655Z AUTO 33008KT 300V360 1000 R03/1500U -SN OVC001 00/00 Q0998 TEMPO 2000 OVC004
EHBK - Maastricht Nederland
Gewijzigd: 27-02-2020 17:55
Mogelijk wat sneeuw, Bewolking  
Mogelijk wat sneeuw, Bewolking  
   Wind: NNW 14.8 km/h
Wind: NNW 14.8 km/h
Temperatuur: 0°C
Voelt als: -4°C
Dauwpunt: 0°C
Vochtigheid: 100%
Barometer: 998 hPa
Satelliet beelden: Bewolking
Zicht: 1 km
Bewolking: Bewolking 31 m
EHBK 271655Z AUTO 33008KT 300V360 1000 R03/1500U -SN OVC001 00/00 Q0998 TEMPO 2000 OVC004
EBLG - Liège België
Gewijzigd: 27-02-2020 17:50
Mogelijk wat sneeuw, Bewolking  
Mogelijk wat sneeuw, Bewolking  
   Wind: NW 18.5 km/h
Wind: NW 18.5 km/h
Temperatuur: 0°C
Voelt als: -5°C
Dauwpunt: -1°C
Vochtigheid: 93%
Barometer: 998 hPa
Satelliet beelden: Bewolking
Zicht: 1 km
Bewolking: Gedeeltelijk bewolkt 61 m,
Bewolking 91 m
EBLG 271650Z 31010KT 1000 R22L/1700N R22R/1600U R04R/1400N -SN SCT002 OVC003 M00/M01 Q0998 BECMG 2000 -SN
EDDK - Köln/Bonn Duitsland
Gewijzigd: 27-02-2020 17:50
Mogelijk wat sneeuw, Neerslag, Bewolking  
Mogelijk wat sneeuw, Neerslag, Bewolking  
   Wind: Noorden 13 km/h
Wind: Noorden 13 km/h
Temperatuur: 1°C
Voelt als: -3°C
Dauwpunt: 0°C
Vochtigheid: 93%
Barometer: 995 hPa
Satelliet beelden: Bewolking
Zicht: 9 km
Bewolking: Licht bewolkt 244 m,
Bewolking 823 m
EDDK 271650Z 01007KT 9000 -SNRA FEW008 OVC027 01/00 Q0995 TEMPO 32007KT RA BKN008
EDDL - Düsseldorf Duitsland
Gewijzigd: 27-02-2020 17:50
Mogelijk wat sneeuw, Neerslag, Grotendeels bewolkt  
Mogelijk wat sneeuw, Neerslag, Grotendeels bewolkt  
   Wind: Noorden 9.3 km/h
Wind: Noorden 9.3 km/h
Temperatuur: 1°C
Voelt als: -2°C
Dauwpunt: 1°C
Vochtigheid: 100%
Barometer: 997 hPa
Satelliet beelden: Grotendeels bewolkt
Zicht: 5 km
Bewolking: Licht bewolkt 183 m,
Grotendeels bewolkt 305 m
EDDL 271650Z 36005KT 5000 -SNRA FEW006 BKN010 01/01 Q0997 BECMG 30006KT BKN012
EHEH - Eindhoven Nederland
Gewijzigd: 27-02-2020 17:59
Mogelijk wat sneeuw, Bewolking  
Mogelijk wat sneeuw, Bewolking  
   Wind: WNW 9.3 km/h
Wind: WNW 9.3 km/h
Temperatuur: 1°C
Voelt als: -2°C
Dauwpunt: 0°C
Vochtigheid: 93%
Barometer: 1000 hPa
Satelliet beelden: Bewolking
Zicht: 3 km
Bewolking: Gedeeltelijk bewolkt 61 m,
Grotendeels bewolkt 91 m,
Bewolking 152 m
EHEH 271659Z AUTO 30005KT 260V350 3200 R03/3000U -SN SCT002 BKN003 OVC005 01/00 Q1000 AMB 31008KT 7000 SCT005 BKN007 TEMPO 2500 SNRA SCT004 OVC006
ELLX - Luxemburg Luxemburg
Gewijzigd: 27-02-2020 17:50
Mogelijk wat sneeuw, Grotendeels bewolkt  
Mogelijk wat sneeuw, Grotendeels bewolkt  
   Wind: NW 27.8 km/h
Wind: NW 27.8 km/h
Temperatuur: 0°C
Voelt als: -6°C
Dauwpunt: 0°C
Vochtigheid: 100%
Barometer: 993 hPa
Satelliet beelden: Grotendeels bewolkt
Zicht: 5 km
Bewolking: Licht bewolkt 183 m,
Grotendeels bewolkt 244 m
ELLX 271650Z 31015KT 4500 -SN FEW006 BKN008 00/M00 Q0993 R99/590230 NOSIG
EGLL - London England
Gewijzigd: 27-02-2020 17:50
Helder  
Helder  
   Wind: NW 20.4 km/h
Wind: NW 20.4 km/h
Temperatuur: 7°C
Voelt als: 3°C
Dauwpunt: -3°C
Vochtigheid: 49%
Barometer: 1008 hPa
Satelliet beelden: Helder
Zicht: meer dan 10 km
Bewolking: Helder
EGLL 271650Z AUTO 31011KT 9999 NCD 07/M03 Q1008 NOSIG
EBAW - Antwerpen België
Gewijzigd: 27-02-2020 17:50
Gedeeltelijk bewolkt  
Gedeeltelijk bewolkt  
   Wind: NW 24.1 km/h
Wind: NW 24.1 km/h
Temperatuur: 4°C
Voelt als: -1°C
Dauwpunt: 2°C
Vochtigheid: 87%
Barometer: 1001 hPa
Satelliet beelden: Gedeeltelijk bewolkt
Zicht: meer dan 10 km
Bewolking: Gedeeltelijk bewolkt 335 m
EBAW 271650Z 32013KT 9999 SCT011 04/02 Q1001 TEMPO 30015G25KT 4500 SHRA SCT012TCU
EBOS - Oostende België
Gewijzigd: 27-02-2020 17:50
Gedeeltelijk bewolkt  
Gedeeltelijk bewolkt  
   Wind: NW 40.7 km/h<br />Gust to 40.7 km/h
Wind: NW 40.7 km/h
Gust to 40.7 km/h
Temperatuur: 6°C
Voelt als: 1°C
Dauwpunt: 1°C
Vochtigheid: 71%
Barometer: 1004 hPa
Satelliet beelden: Gedeeltelijk bewolkt
Zicht: meer dan 10 km
Bewolking: Gedeeltelijk bewolkt 762 m,
Gedeeltelijk bewolkt 1341 m
EBOS 271650Z 32022G32KT 9999 SCT025 SCT044 06/01 Q1004 NOSIG
LEAL - La Nucia Spanje
Gewijzigd: 27-02-2020 17:30
Helder  
Helder  
   Wind: Zuiden 14.8 km/h
Wind: Zuiden 14.8 km/h
Temperatuur: 19°C
Dauwpunt: 10°C
Vochtigheid: 56%
Barometer: 1018 hPa
Zicht: meer dan 10 km
Bewolking: Helder
LEAL 271630Z 19008KT 150V230 CAVOK 19/10 Q1018 NOSIG
TNCA - Oranjestad Aruba
Gewijzigd: 27-02-2020 18:00
Gedeeltelijk bewolkt  
Gedeeltelijk bewolkt  
   Wind: Oosten 31.5 km/h
Wind: Oosten 31.5 km/h
Temperatuur: 30°C
Gevoelstemperatuur: 33°C
Dauwpunt: 22°C
Vochtigheid: 62%
Barometer: 1015 hPa
Satelliet beelden: Gedeeltelijk bewolkt
Zicht: meer dan 10 km
Bewolking: Gedeeltelijk bewolkt 793 m
TNCA 271700Z 09017KT 9999 SCT026 30/22 Q1015 NOSIG
TNCC - Willemstad Curacao
Gewijzigd: 27-02-2020 17:00
Gedeeltelijk bewolkt  
Gedeeltelijk bewolkt  
   Wind: Oosten 22.2 km/h
Wind: Oosten 22.2 km/h
Temperatuur: 30°C
Gevoelstemperatuur: 33°C
Dauwpunt: 22°C
Vochtigheid: 62%
Barometer: 1016 hPa
Satelliet beelden: Gedeeltelijk bewolkt
Zicht: meer dan 10 km
Bewolking: Gedeeltelijk bewolkt 762 m
TNCC 271600Z 10012KT 9999 SCT025 30/22 Q1016 NOSIG=
MTPP - Port au Prince Haitië
Gewijzigd: 27-02-2020 19:00
Licht bewolkt  
Licht bewolkt  
   Wind: OZO 18.5 km/h
Wind: OZO 18.5 km/h
Temperatuur: 27°C
Gevoelstemperatuur: 29°C
Dauwpunt: 21°C
Vochtigheid: 70%
Barometer: 1016 hPa
Satelliet beelden: Licht bewolkt
Zicht: 8 km
Bewolking: Licht bewolkt 671 m
MTPP 271800Z 12010KT 8000 FEW022 27/21 Q1016 A3002 NOSIG
ENVA - Trondheim Noorwegen
Gewijzigd: 27-02-2020 17:50
Helder  
Helder  
   Wind: ZO 18.5 km/h
Wind: ZO 18.5 km/h
Temperatuur: -2°C
Voelt als: -8°C
Dauwpunt: -11°C
Vochtigheid: 51%
Barometer: 993 hPa
Zicht: meer dan 10 km
Bewolking: Helder
ENVA 271650Z 14010KT CAVOK M02/M11 Q0993 NOSIG RMK WIND 670FT 17017KT
ENBO - Bodø Noorwegen
Gewijzigd: 27-02-2020 17:50
Helder  
Helder  
   Wind: Zuiden 24.1 km/h
Wind: Zuiden 24.1 km/h
Temperatuur: -1°C
Voelt als: -7°C
Dauwpunt: -13°C
Vochtigheid: 40%
Barometer: 991 hPa
Zicht: meer dan 10 km
Bewolking: Helder
ENBO 271650Z 17013KT CAVOK M01/M13 Q0991 NOSIG
ETNG - Geilenkirchen Duitsland
Gewijzigd: 27-02-2020 17:50
Sneeuw, Bewolking  
Sneeuw, Bewolking  
   Wind: NW 9.3 km/h
Wind: NW 9.3 km/h
Temperatuur: 0°C
Voelt als: -3°C
Dauwpunt: 0°C
Vochtigheid: 100%
Barometer: 998 hPa
Satelliet beelden: Bewolking
Zicht: 2 km
Bewolking: Gedeeltelijk bewolkt 61 m,
Bewolking 91 m
ETNG 271650Z 32005KT 1500 R09/1700 SN SCT002 OVC003 00/M00 Q0998 TEMPO 0700 BKN002
 

Script ontwikkeld door  Saratoga-weather.org Aangepast voor de template door  Weerstation Leuven

U vindt ons ook hier:

Het Weer Aktueel

WOW Nederland KNMI

Vereniging voor Weerkunde en Klimatologie

UK Met Office Weather Observation Website (WOW)

WeatherCloud

Weather Underground

Awekas

Weatherlink IP

HAMweather, WeatherForYou, PWS Weather

Citizen Weather Observer Program (CWOP)

Apparatuur in gebruik:

Hardwareleverancier
Weerhuisje

Weerstation
Vantage Pro2+ UV

Weercomputer's
alix3d2 & wl330n

Weerprogramma's
Smartbedded

Satelliet NOAA's
WRX137 & KX137

Satelliet Eumetsat
Ayecka SR1 & Triax

Bliksemdetectie
Boltek StormTracker

Webleverancier
F-Service

Weerhuisje

Vantage Pro2+ UV

alix3d2 & wl330n

Smartbedded

WRX137 & KX137

Ayecka SR1 & Triax

Boltek StormTracker

F-Service